sensor_id;sensor_type;location;lat;lon;timestamp;pressure;altitude;pressure_sealevel;temperature;humidity
36692;BME280;22678;52.052;4.242;2023-07-20T00:02:12;101547.66;;;18.27;79.09
36692;BME280;22678;52.052;4.242;2023-07-20T00:04:37;101549.47;;;18.25;79.25
36692;BME280;22678;52.052;4.242;2023-07-20T00:07:03;101538.03;;;18.21;79.27
36692;BME280;22678;52.052;4.242;2023-07-20T00:09:29;101546.78;;;18.25;79.38
36692;BME280;22678;52.052;4.242;2023-07-20T00:11:54;101541.59;;;18.20;79.57
36692;BME280;22678;52.052;4.242;2023-07-20T00:14:20;101554.00;;;18.21;79.42
36692;BME280;22678;52.052;4.242;2023-07-20T00:16:45;101547.97;;;18.15;79.42
36692;BME280;22678;52.052;4.242;2023-07-20T00:19:17;101531.53;;;18.00;79.07
36692;BME280;22678;52.052;4.242;2023-07-20T00:21:42;101542.16;;;18.00;78.99
36692;BME280;22678;52.052;4.242;2023-07-20T00:24:08;101546.63;;;18.00;79.01
36692;BME280;22678;52.052;4.242;2023-07-20T00:26:33;101545.81;;;17.98;78.93
36692;BME280;22678;52.052;4.242;2023-07-20T00:28:59;101538.00;;;17.90;78.83
36692;BME280;22678;52.052;4.242;2023-07-20T00:31:24;101539.06;;;17.84;78.98
36692;BME280;22678;52.052;4.242;2023-07-20T00:33:49;101545.22;;;17.85;78.93
36692;BME280;22678;52.052;4.242;2023-07-20T00:36:15;101533.09;;;17.75;79.02
36692;BME280;22678;52.052;4.242;2023-07-20T00:38:41;101560.38;;;17.83;79.04
36692;BME280;22678;52.052;4.242;2023-07-20T00:41:07;101536.84;;;17.67;78.88
36692;BME280;22678;52.052;4.242;2023-07-20T00:43:32;101541.25;;;17.68;78.92
36692;BME280;22678;52.052;4.242;2023-07-20T00:45:57;101528.19;;;17.59;78.91
36692;BME280;22678;52.052;4.242;2023-07-20T00:48:23;101542.25;;;17.64;78.83
36692;BME280;22678;52.052;4.242;2023-07-20T00:50:49;101547.56;;;17.64;79.05
36692;BME280;22678;52.052;4.242;2023-07-20T00:53:15;101544.94;;;17.63;78.95
36692;BME280;22678;52.052;4.242;2023-07-20T00:55:40;101540.56;;;17.60;78.67
36692;BME280;22678;52.052;4.242;2023-07-20T00:58:06;101531.94;;;17.52;79.07
36692;BME280;22678;52.052;4.242;2023-07-20T01:00:32;101531.94;;;17.52;78.87
36692;BME280;22678;52.052;4.242;2023-07-20T01:02:57;101537.31;;;17.49;78.90
36692;BME280;22678;52.052;4.242;2023-07-20T01:05:28;101541.81;;;17.47;78.90
36692;BME280;22678;52.052;4.242;2023-07-20T01:07:59;101530.56;;;17.36;79.00
36692;BME280;22678;52.052;4.242;2023-07-20T01:10:38;101555.19;;;17.44;78.99
36692;BME280;22678;52.052;4.242;2023-07-20T01:13:06;101541.16;;;17.37;79.17
36692;BME280;22678;52.052;4.242;2023-07-20T01:15:34;101544.78;;;17.34;79.14
36692;BME280;22678;52.052;4.242;2023-07-20T01:17:59;101549.09;;;17.39;79.49
36692;BME280;22678;52.052;4.242;2023-07-20T01:20:26;101554.41;;;17.40;79.50
36692;BME280;22678;52.052;4.242;2023-07-20T01:28:35;101559.72;;;17.39;79.98
36692;BME280;22678;52.052;4.242;2023-07-20T01:33:42;101560.69;;;17.36;80.17
36692;BME280;22678;52.052;4.242;2023-07-20T01:36:09;101551.94;;;17.31;80.34
36692;BME280;22678;52.052;4.242;2023-07-20T01:38:36;101560.81;;;17.31;80.26
36692;BME280;22678;52.052;4.242;2023-07-20T01:41:02;101538.00;;;17.23;80.31
36692;BME280;22678;52.052;4.242;2023-07-20T01:43:28;101550.31;;;17.25;80.34
36692;BME280;22678;52.052;4.242;2023-07-20T01:45:53;101559.97;;;17.29;80.56
36692;BME280;22678;52.052;4.242;2023-07-20T01:48:18;101553.91;;;17.24;80.68
36692;BME280;22678;52.052;4.242;2023-07-20T01:50:44;101568.88;;;17.27;80.62
36692;BME280;22678;52.052;4.242;2023-07-20T01:53:09;101557.47;;;17.23;80.60
36692;BME280;22678;52.052;4.242;2023-07-20T01:55:35;101561.88;;;17.24;80.80
36692;BME280;22678;52.052;4.242;2023-07-20T01:58:00;101566.31;;;17.24;80.86
36692;BME280;22678;52.052;4.242;2023-07-20T02:00:27;101557.50;;;17.22;81.00
36692;BME280;22678;52.052;4.242;2023-07-20T02:02:52;101554.09;;;17.15;80.93
36692;BME280;22678;52.052;4.242;2023-07-20T02:05:17;101562.94;;;17.17;80.84
36692;BME280;22678;52.052;4.242;2023-07-20T02:07:43;101552.47;;;17.11;81.09
36692;BME280;22678;52.052;4.242;2023-07-20T02:10:09;101552.47;;;17.11;80.97
36692;BME280;22678;52.052;4.242;2023-07-20T02:12:34;101554.19;;;17.12;81.24
36692;BME280;22678;52.052;4.242;2023-07-20T02:14:59;101550.78;;;17.07;81.46
36692;BME280;22678;52.052;4.242;2023-07-20T02:17:25;101539.41;;;17.00;81.46
36692;BME280;22678;52.052;4.242;2023-07-20T02:19:52;101540.38;;;16.97;81.64
36692;BME280;22678;52.052;4.242;2023-07-20T02:22:18;101549.06;;;17.04;81.72
36692;BME280;22678;52.052;4.242;2023-07-20T02:24:43;101558.88;;;17.02;81.80
36692;BME280;22678;52.052;4.242;2023-07-20T02:27:08;101551.00;;;16.97;81.85
36692;BME280;22678;52.052;4.242;2023-07-20T02:29:34;101562.47;;;16.99;81.80
36692;BME280;22678;52.052;4.242;2023-07-20T02:31:59;101552.88;;;16.92;82.00
36692;BME280;22678;52.052;4.242;2023-07-20T02:34:24;101558.13;;;16.95;82.04
36692;BME280;22678;52.052;4.242;2023-07-20T02:36:50;101566.16;;;16.92;81.86
36692;BME280;22678;52.052;4.242;2023-07-20T02:39:15;101562.69;;;16.90;81.89
36692;BME280;22678;52.052;4.242;2023-07-20T02:41:41;101551.31;;;16.82;81.81
36692;BME280;22678;52.052;4.242;2023-07-20T02:44:06;101560.13;;;16.84;81.94
36692;BME280;22678;52.052;4.242;2023-07-20T02:46:32;101559.41;;;16.77;81.82
36692;BME280;22678;52.052;4.242;2023-07-20T02:48:57;101543.72;;;16.65;81.78
36692;BME280;22678;52.052;4.242;2023-07-20T02:51:23;101552.44;;;16.72;81.84
36692;BME280;22678;52.052;4.242;2023-07-20T02:53:48;101572.78;;;16.73;81.84
36692;BME280;22678;52.052;4.242;2023-07-20T02:56:13;101564.09;;;16.64;81.74
36692;BME280;22678;52.052;4.242;2023-07-20T02:58:41;101562.34;;;16.63;82.04
36692;BME280;22678;52.052;4.242;2023-07-20T03:01:11;101566.03;;;16.58;81.96
36692;BME280;22678;52.052;4.242;2023-07-20T03:03:37;101559.03;;;16.54;82.12
36692;BME280;22678;52.052;4.242;2023-07-20T03:06:05;101566.00;;;16.59;82.25
36692;BME280;22678;52.052;4.242;2023-07-20T03:08:30;101577.50;;;16.58;82.15
36692;BME280;22678;52.052;4.242;2023-07-20T03:10:55;101571.34;;;16.58;82.42
36692;BME280;22678;52.052;4.242;2023-07-20T03:13:21;101587.25;;;16.59;82.54
36692;BME280;22678;52.052;4.242;2023-07-20T03:15:46;101588.13;;;16.58;82.44
36692;BME280;22678;52.052;4.242;2023-07-20T03:18:11;101590.84;;;16.55;82.54
36692;BME280;22678;52.052;4.242;2023-07-20T03:20:38;101578.56;;;16.51;82.71
36692;BME280;22678;52.052;4.242;2023-07-20T03:23:03;101588.22;;;16.55;83.03
36692;BME280;22678;52.052;4.242;2023-07-20T03:25:29;101590.00;;;16.53;82.93
36692;BME280;22678;52.052;4.242;2023-07-20T03:27:54;101587.41;;;16.50;83.04
36692;BME280;22678;52.052;4.242;2023-07-20T03:30:19;101592.78;;;16.47;82.95
36692;BME280;22678;52.052;4.242;2023-07-20T03:32:45;101590.94;;;16.52;83.22
36692;BME280;22678;52.052;4.242;2023-07-20T03:35:10;101585.72;;;16.48;83.49
36692;BME280;22678;52.052;4.242;2023-07-20T03:37:35;101589.25;;;16.48;83.45
36692;BME280;22678;52.052;4.242;2023-07-20T03:40:02;101603.34;;;16.50;83.54
36692;BME280;22678;52.052;4.242;2023-07-20T03:42:28;101592.78;;;16.47;83.70
36692;BME280;22678;52.052;4.242;2023-07-20T03:44:53;101591.06;;;16.46;83.88
36692;BME280;22678;52.052;4.242;2023-07-20T03:47:18;101598.16;;;16.44;83.88
36692;BME280;22678;52.052;4.242;2023-07-20T03:49:44;101590.19;;;16.44;84.08
36692;BME280;22678;52.052;4.242;2023-07-20T03:52:09;101591.09;;;16.44;84.21
36692;BME280;22678;52.052;4.242;2023-07-20T03:54:34;101590.09;;;16.49;84.20
36692;BME280;22678;52.052;4.242;2023-07-20T03:57:00;101599.84;;;16.48;84.36
36692;BME280;22678;52.052;4.242;2023-07-20T03:59:26;101592.72;;;16.50;84.34
36692;BME280;22678;52.052;4.242;2023-07-20T04:01:51;101588.38;;;16.48;84.75
36692;BME280;22678;52.052;4.242;2023-07-20T04:04:17;101596.38;;;16.46;84.97
36692;BME280;22678;52.052;4.242;2023-07-20T04:06:42;101572.69;;;16.35;84.95
36692;BME280;22678;52.052;4.242;2023-07-20T04:09:10;101599.88;;;16.46;84.95
36692;BME280;22678;52.052;4.242;2023-07-20T04:11:36;101591.94;;;16.46;85.03
36692;BME280;22678;52.052;4.242;2023-07-20T04:14:02;101585.75;;;16.46;85.26
36692;BME280;22678;52.052;4.242;2023-07-20T04:16:27;101582.28;;;16.42;85.05
36692;BME280;22678;52.052;4.242;2023-07-20T04:18:55;101601.69;;;16.46;85.17
36692;BME280;22678;52.052;4.242;2023-07-20T04:21:21;101598.16;;;16.44;85.27
36692;BME280;22678;52.052;4.242;2023-07-20T04:23:46;101596.38;;;16.46;85.59
36692;BME280;22678;52.052;4.242;2023-07-20T04:26:11;101599.88;;;16.46;85.74
36692;BME280;22678;52.052;4.242;2023-07-20T04:28:38;101585.78;;;16.43;85.69
36692;BME280;22678;52.052;4.242;2023-07-20T04:31:15;101594.63;;;16.45;85.75
36692;BME280;22678;52.052;4.242;2023-07-20T04:33:41;101591.81;;;16.51;85.76
36692;BME280;22678;52.052;4.242;2023-07-20T04:36:07;101601.47;;;16.55;85.86
36692;BME280;22678;52.052;4.242;2023-07-20T04:38:33;101592.56;;;16.59;86.12
36692;BME280;22678;52.052;4.242;2023-07-20T04:40:59;101601.22;;;16.68;86.20
36692;BME280;22678;52.052;4.242;2023-07-20T04:43:25;101606.34;;;16.77;86.16
36692;BME280;22678;52.052;4.242;2023-07-20T04:45:50;101604.47;;;16.80;86.29
36692;BME280;22678;52.052;4.242;2023-07-20T04:48:16;101606.09;;;16.89;86.31
36692;BME280;22678;52.052;4.242;2023-07-20T04:50:44;101599.72;;;16.96;86.49
36692;BME280;22678;52.052;4.242;2023-07-20T04:53:13;101599.66;;;16.99;86.50
36692;BME280;22678;52.052;4.242;2023-07-20T04:55:39;101599.44;;;17.09;86.73
36692;BME280;22678;52.052;4.242;2023-07-20T04:58:05;101605.50;;;17.15;86.70
36692;BME280;22678;52.052;4.242;2023-07-20T05:00:33;101600.16;;;17.17;86.87
36692;BME280;22678;52.052;4.242;2023-07-20T05:02:58;101604.44;;;17.23;86.86
36692;BME280;22678;52.052;4.242;2023-07-20T05:05:24;101601.81;;;17.21;86.85
36692;BME280;22678;52.052;4.242;2023-07-20T05:07:49;101600.97;;;17.19;86.90
36692;BME280;22678;52.052;4.242;2023-07-20T05:10:14;101610.63;;;17.23;87.05
36692;BME280;22678;52.052;4.242;2023-07-20T05:12:40;101619.47;;;17.24;86.76
36692;BME280;22678;52.052;4.242;2023-07-20T05:15:05;101611.50;;;17.24;86.63
36692;BME280;22678;52.052;4.242;2023-07-20T05:17:31;101607.19;;;17.20;86.69
36692;BME280;22678;52.052;4.242;2023-07-20T05:19:56;101624.69;;;17.27;86.59
36692;BME280;22678;52.052;4.242;2023-07-20T05:22:36;101601.00;;;17.17;86.50
36692;BME280;22678;52.052;4.242;2023-07-20T05:25:07;101618.38;;;17.32;86.38
36692;BME280;22678;52.052;4.242;2023-07-20T05:27:34;101608.59;;;17.34;86.66
36692;BME280;22678;52.052;4.242;2023-07-20T05:30:00;101616.50;;;17.38;86.28
36692;BME280;22678;52.052;4.242;2023-07-20T05:32:25;101612.13;;;17.35;86.16
36692;BME280;22678;52.052;4.242;2023-07-20T05:34:54;101559.34;;;17.18;85.87
36692;BME280;22678;52.052;4.242;2023-07-20T05:37:20;101601.06;;;17.52;85.70
36692;BME280;22678;52.052;4.242;2023-07-20T05:39:45;101615.97;;;17.58;85.37
36692;BME280;22678;52.052;4.242;2023-07-20T05:42:10;101615.19;;;17.54;85.03
36692;BME280;22678;52.052;4.242;2023-07-20T05:44:36;101617.66;;;17.62;85.25
36692;BME280;22678;52.052;4.242;2023-07-20T05:47:01;101620.28;;;17.63;85.08
36692;BME280;22678;52.052;4.242;2023-07-20T05:49:27;101612.09;;;17.73;84.87
36692;BME280;22678;52.052;4.242;2023-07-20T05:51:54;101607.66;;;17.72;84.76
36692;BME280;22678;52.052;4.242;2023-07-20T05:54:21;101610.50;;;17.65;84.84
36692;BME280;22678;52.052;4.242;2023-07-20T05:56:46;101605.22;;;17.64;84.86
36692;BME280;22678;52.052;4.242;2023-07-20T05:59:12;101614.78;;;17.69;84.84
36692;BME280;22678;52.052;4.242;2023-07-20T06:01:37;101615.88;;;17.62;84.79
36692;BME280;22678;52.052;4.242;2023-07-20T06:04:02;101601.03;;;17.54;84.89
36692;BME280;22678;52.052;4.242;2023-07-20T06:06:28;101607.28;;;17.51;84.76
36692;BME280;22678;52.052;4.242;2023-07-20T06:08:54;101618.69;;;17.56;85.02
36692;BME280;22678;52.052;4.242;2023-07-20T06:11:19;101597.66;;;17.47;85.13
36692;BME280;22678;52.052;4.242;2023-07-20T06:13:45;101623.91;;;17.59;85.09
36692;BME280;22678;52.052;4.242;2023-07-20T06:16:11;101622.19;;;17.58;84.99
36692;BME280;22678;52.052;4.242;2023-07-20T06:18:36;101618.69;;;17.56;84.79
36692;BME280;22678;52.052;4.242;2023-07-20T06:21:01;101631.91;;;17.59;84.81
36692;BME280;22678;52.052;4.242;2023-07-20T06:23:27;101615.19;;;17.54;84.87
36692;BME280;22678;52.052;4.242;2023-07-20T06:25:52;101624.66;;;17.66;85.06
36692;BME280;22678;52.052;4.242;2023-07-20T06:28:18;101630.38;;;17.85;84.54
36692;BME280;22678;52.052;4.242;2023-07-20T06:30:43;101635.38;;;17.97;84.10
36692;BME280;22678;52.052;4.242;2023-07-20T06:33:09;101633.47;;;18.04;83.94
36692;BME280;22678;52.052;4.242;2023-07-20T06:35:34;101635.41;;;18.30;83.67
36692;BME280;22678;52.052;4.242;2023-07-20T06:38:03;101628.72;;;18.47;82.38
36692;BME280;22678;52.052;4.242;2023-07-20T06:40:29;101633.25;;;18.74;81.63
36692;BME280;22678;52.052;4.242;2023-07-20T06:42:55;101635.72;;;19.11;80.15
36692;BME280;22678;52.052;4.242;2023-07-20T06:45:20;101638.31;;;19.42;78.86
36692;BME280;22678;52.052;4.242;2023-07-20T06:47:45;101628.72;;;19.63;76.97
36692;BME280;22678;52.052;4.242;2023-07-20T06:50:11;101635.38;;;19.76;75.68
36692;BME280;22678;52.052;4.242;2023-07-20T06:52:37;101647.22;;;19.68;74.61
36692;BME280;22678;52.052;4.242;2023-07-20T06:55:03;101654.16;;;19.47;74.53
36692;BME280;22678;52.052;4.242;2023-07-20T06:57:28;101635.38;;;19.23;74.05
36692;BME280;22678;52.052;4.242;2023-07-20T06:59:54;101652.50;;;19.42;74.44
36692;BME280;22678;52.052;4.242;2023-07-20T07:02:19;101639.59;;;19.57;73.90
36692;BME280;22678;52.052;4.242;2023-07-20T07:04:45;101644.91;;;19.85;72.64
36692;BME280;22678;52.052;4.242;2023-07-20T07:07:14;101641.53;;;20.05;71.87
36692;BME280;22678;52.052;4.242;2023-07-20T07:09:39;101646.00;;;20.30;70.99
36692;BME280;22678;52.052;4.242;2023-07-20T07:12:05;101651.41;;;20.52;69.52
36692;BME280;22678;52.052;4.242;2023-07-20T07:14:30;101655.13;;;20.73;68.84
36692;BME280;22678;52.052;4.242;2023-07-20T07:16:56;101647.34;;;20.67;68.01
36692;BME280;22678;52.052;4.242;2023-07-20T07:19:21;101656.28;;;20.66;67.29
36692;BME280;22678;52.052;4.242;2023-07-20T07:21:46;101658.50;;;20.78;66.22
36692;BME280;22678;52.052;4.242;2023-07-20T07:24:12;101644.91;;;20.59;66.04
36692;BME280;22678;52.052;4.242;2023-07-20T07:26:37;101657.22;;;20.40;66.46
36692;BME280;22678;52.052;4.242;2023-07-20T07:29:03;101648.63;;;20.06;66.64
36692;BME280;22678;52.052;4.242;2023-07-20T07:31:29;101653.56;;;19.92;67.11
36692;BME280;22678;52.052;4.242;2023-07-20T07:33:55;101653.53;;;19.93;66.43
36692;BME280;22678;52.052;4.242;2023-07-20T07:36:21;101646.97;;;20.02;65.95
36692;BME280;22678;52.052;4.242;2023-07-20T07:38:46;101639.84;;;20.28;66.09
36692;BME280;22678;52.052;4.242;2023-07-20T07:41:11;101660.78;;;20.64;65.67
36692;BME280;22678;52.052;4.242;2023-07-20T07:43:37;101653.91;;;20.82;64.91
36692;BME280;22678;52.052;4.242;2023-07-20T07:46:03;101652.94;;;21.07;64.78
36692;BME280;22678;52.052;4.242;2023-07-20T07:48:29;101618.25;;;21.05;63.88
36692;BME280;22678;52.052;4.242;2023-07-20T07:50:54;101666.66;;;21.43;63.06
36692;BME280;22678;52.052;4.242;2023-07-20T07:53:20;101667.91;;;21.57;62.73
36692;BME280;22678;52.052;4.242;2023-07-20T07:55:47;101648.00;;;21.64;61.64
36692;BME280;22678;52.052;4.242;2023-07-20T07:58:13;101666.16;;;21.78;61.32
36692;BME280;22678;52.052;4.242;2023-07-20T08:00:39;101653.09;;;21.91;60.86
36692;BME280;22678;52.052;4.242;2023-07-20T08:03:06;101659.69;;;22.04;59.10
36692;BME280;22678;52.052;4.242;2023-07-20T08:05:31;101647.91;;;22.08;59.16
36692;BME280;22678;52.052;4.242;2023-07-20T08:07:57;101663.16;;;22.27;59.27
36692;BME280;22678;52.052;4.242;2023-07-20T08:10:22;101657.56;;;22.33;58.94
36692;BME280;22678;52.052;4.242;2023-07-20T08:12:47;101659.63;;;22.47;58.57
36692;BME280;22678;52.052;4.242;2023-07-20T08:15:13;101655.94;;;22.49;55.94
36692;BME280;22678;52.052;4.242;2023-07-20T08:17:40;101662.97;;;22.52;56.64
36692;BME280;22678;52.052;4.242;2023-07-20T08:20:06;101660.34;;;22.50;55.78
36692;BME280;22678;52.052;4.242;2023-07-20T08:22:31;101652.97;;;22.55;56.40
36692;BME280;22678;52.052;4.242;2023-07-20T08:24:57;101652.56;;;22.65;55.68
36692;BME280;22678;52.052;4.242;2023-07-20T08:27:22;101662.41;;;22.83;55.92
36692;BME280;22678;52.052;4.242;2023-07-20T08:29:47;101667.06;;;22.99;55.60
36692;BME280;22678;52.052;4.242;2023-07-20T08:32:13;101667.56;;;23.07;54.39
36692;BME280;22678;52.052;4.242;2023-07-20T08:34:39;101668.53;;;23.06;53.71
36692;BME280;22678;52.052;4.242;2023-07-20T08:37:05;101656.03;;;23.05;53.68
36692;BME280;22678;52.052;4.242;2023-07-20T08:39:30;101661.50;;;23.22;53.82
36692;BME280;22678;52.052;4.242;2023-07-20T08:41:57;101672.91;;;23.45;54.48
36692;BME280;22678;52.052;4.242;2023-07-20T08:44:25;101659.06;;;23.54;53.93
36692;BME280;22678;52.052;4.242;2023-07-20T08:46:52;101662.53;;;23.74;53.01
36692;BME280;22678;52.052;4.242;2023-07-20T08:49:18;101656.06;;;23.78;51.60
36692;BME280;22678;52.052;4.242;2023-07-20T08:51:45;101662.63;;;23.72;51.32
36692;BME280;22678;52.052;4.242;2023-07-20T08:54:12;101662.22;;;23.80;51.16
36692;BME280;22678;52.052;4.242;2023-07-20T08:56:39;101664.91;;;23.80;50.80
36692;BME280;22678;52.052;4.242;2023-07-20T08:59:08;101666.22;;;23.90;51.23
36692;BME280;22678;52.052;4.242;2023-07-20T09:01:35;101650.50;;;24.00;50.74
36692;BME280;22678;52.052;4.242;2023-07-20T09:04:01;101670.16;;;24.18;50.58
36692;BME280;22678;52.052;4.242;2023-07-20T09:06:27;101668.63;;;24.30;50.92
36692;BME280;22678;52.052;4.242;2023-07-20T09:08:52;101658.09;;;24.43;50.14
36692;BME280;22678;52.052;4.242;2023-07-20T09:11:17;101673.72;;;24.52;49.84
36692;BME280;22678;52.052;4.242;2023-07-20T09:13:43;101664.63;;;24.55;49.00
36692;BME280;22678;52.052;4.242;2023-07-20T09:16:13;101662.03;;;24.53;48.52
36692;BME280;22678;52.052;4.242;2023-07-20T09:18:39;101655.06;;;24.49;48.25
36692;BME280;22678;52.052;4.242;2023-07-20T09:21:05;101660.28;;;24.52;47.98
36692;BME280;22678;52.052;4.242;2023-07-20T09:23:35;101657.75;;;24.49;48.22
36692;BME280;22678;52.052;4.242;2023-07-20T09:26:12;101666.00;;;24.63;48.05
36692;BME280;22678;52.052;4.242;2023-07-20T09:28:43;101657.59;;;24.70;48.15
36692;BME280;22678;52.052;4.242;2023-07-20T09:31:20;101654.38;;;24.79;47.00
36692;BME280;22678;52.052;4.242;2023-07-20T09:33:47;101657.97;;;24.79;46.37
36692;BME280;22678;52.052;4.242;2023-07-20T09:36:13;101669.13;;;24.88;46.77
36692;BME280;22678;52.052;4.242;2023-07-20T09:38:41;101661.34;;;24.99;46.34
36692;BME280;22678;52.052;4.242;2023-07-20T09:41:07;101661.44;;;25.13;46.06
36692;BME280;22678;52.052;4.242;2023-07-20T09:43:34;101670.56;;;25.27;45.83
36692;BME280;22678;52.052;4.242;2023-07-20T09:46:00;101662.91;;;25.35;45.00
36692;BME280;22678;52.052;4.242;2023-07-20T09:48:25;101665.69;;;25.33;44.63
36692;BME280;22678;52.052;4.242;2023-07-20T09:50:52;101673.00;;;25.31;44.40
36692;BME280;22678;52.052;4.242;2023-07-20T09:53:18;101678.66;;;25.43;45.18
36692;BME280;22678;52.052;4.242;2023-07-20T09:55:45;101671.25;;;25.30;45.26
36692;BME280;22678;52.052;4.242;2023-07-20T09:58:11;101671.41;;;25.27;45.24
36692;BME280;22678;52.052;4.242;2023-07-20T10:00:38;101671.25;;;25.30;45.00
36692;BME280;22678;52.052;4.242;2023-07-20T10:03:05;101671.16;;;25.32;44.05
36692;BME280;22678;52.052;4.242;2023-07-20T10:05:35;101673.59;;;25.36;43.92
36692;BME280;22678;52.052;4.242;2023-07-20T10:08:03;101670.41;;;25.46;43.87
36692;BME280;22678;52.052;4.242;2023-07-20T10:10:31;101663.78;;;25.51;43.78
36692;BME280;22678;52.052;4.242;2023-07-20T10:12:58;101675.56;;;25.65;43.24
36692;BME280;22678;52.052;4.242;2023-07-20T10:15:43;101672.66;;;25.84;42.69
36692;BME280;22678;52.052;4.242;2023-07-20T10:18:46;101668.19;;;25.99;42.19
36692;BME280;22678;52.052;4.242;2023-07-20T10:21:09;101662.16;;;26.10;41.66
36692;BME280;22678;52.052;4.242;2023-07-20T10:23:35;101658.28;;;25.99;41.49
36692;BME280;22678;52.052;4.242;2023-07-20T10:26:01;101662.47;;;25.89;41.26
36692;BME280;22678;52.052;4.242;2023-07-20T10:28:27;101661.91;;;25.98;41.82
36692;BME280;22678;52.052;4.242;2023-07-20T10:30:53;101662.78;;;25.99;41.93
36692;BME280;22678;52.052;4.242;2023-07-20T10:33:19;101658.44;;;25.96;42.34
36692;BME280;22678;52.052;4.242;2023-07-20T10:36:00;101650.53;;;25.93;41.71
36692;BME280;22678;52.052;4.242;2023-07-20T10:38:42;101665.22;;;26.03;42.21
36692;BME280;22678;52.052;4.242;2023-07-20T10:41:22;101657.38;;;26.15;41.55
36692;BME280;22678;52.052;4.242;2023-07-20T10:43:50;101669.66;;;26.19;40.55
36692;BME280;22678;52.052;4.242;2023-07-20T10:49:05;101654.97;;;26.39;40.64
36692;BME280;22678;52.052;4.242;2023-07-20T10:51:39;101651.50;;;26.37;40.75
36692;BME280;22678;52.052;4.242;2023-07-20T10:56:44;101650.34;;;26.55;40.53
36692;BME280;22678;52.052;4.242;2023-07-20T10:59:20;101648.63;;;26.69;40.91
36692;BME280;22678;52.052;4.242;2023-07-20T11:02:08;101634.63;;;26.77;40.44
36692;BME280;22678;52.052;4.242;2023-07-20T11:04:40;101642.38;;;26.83;40.07
36692;BME280;22678;52.052;4.242;2023-07-20T11:07:06;101645.81;;;26.85;38.88
36692;BME280;22678;52.052;4.242;2023-07-20T11:09:38;101642.25;;;26.84;38.71
36692;BME280;22678;52.052;4.242;2023-07-20T11:12:17;101641.28;;;26.85;39.28
36692;BME280;22678;52.052;4.242;2023-07-20T11:14:54;101624.03;;;26.88;39.58
36692;BME280;22678;52.052;4.242;2023-07-20T11:17:19;101636.84;;;26.99;39.90
36692;BME280;22678;52.052;4.242;2023-07-20T11:19:56;101618.44;;;26.91;39.43
36692;BME280;22678;52.052;4.242;2023-07-20T11:22:21;101627.31;;;26.93;38.58
36692;BME280;22678;52.052;4.242;2023-07-20T11:24:47;101632.72;;;26.93;38.92
36692;BME280;22678;52.052;4.242;2023-07-20T11:27:14;101629.50;;;27.01;39.44
36692;BME280;22678;52.052;4.242;2023-07-20T11:29:40;101628.78;;;27.12;39.34
36692;BME280;22678;52.052;4.242;2023-07-20T11:32:05;101635.88;;;27.27;38.73
36692;BME280;22678;52.052;4.242;2023-07-20T11:34:31;101638.56;;;27.41;38.19
36692;BME280;22678;52.052;4.242;2023-07-20T11:36:58;101633.41;;;27.51;37.16
36692;BME280;22678;52.052;4.242;2023-07-20T11:39:24;101631.88;;;27.47;37.30
36692;BME280;22678;52.052;4.242;2023-07-20T11:41:57;101629.16;;;27.47;37.21
36692;BME280;22678;52.052;4.242;2023-07-20T11:44:24;101627.56;;;27.44;37.03
36692;BME280;22678;52.052;4.242;2023-07-20T11:49:34;101623.66;;;27.49;37.81
36692;BME280;22678;52.052;4.242;2023-07-20T11:52:00;101615.69;;;27.60;37.93
36692;BME280;22678;52.052;4.242;2023-07-20T11:54:27;101622.09;;;27.72;37.46
36692;BME280;22678;52.052;4.242;2023-07-20T11:56:55;101610.13;;;27.76;36.73
36692;BME280;22678;52.052;4.242;2023-07-20T11:59:23;101620.94;;;27.89;36.93
36692;BME280;22678;52.052;4.242;2023-07-20T12:01:49;101618.25;;;27.89;36.81
36692;BME280;22678;52.052;4.242;2023-07-20T12:04:14;101613.38;;;27.94;37.45
36692;BME280;22678;52.052;4.242;2023-07-20T12:06:40;101611.38;;;27.98;36.79
36692;BME280;22678;52.052;4.242;2023-07-20T12:09:05;101612.56;;;28.06;36.77
36692;BME280;22678;52.052;4.242;2023-07-20T12:11:35;101612.44;;;28.21;36.93
36692;BME280;22678;52.052;4.242;2023-07-20T12:14:01;101612.31;;;28.35;36.27
36692;BME280;22678;52.052;4.242;2023-07-20T12:16:28;101614.16;;;28.35;36.04
36692;BME280;22678;52.052;4.242;2023-07-20T12:19:00;101615.97;;;28.34;36.13
36692;BME280;22678;52.052;4.242;2023-07-20T12:21:27;101619.69;;;28.33;36.78
36692;BME280;22678;52.052;4.242;2023-07-20T12:23:52;101617.72;;;28.35;36.06
36692;BME280;22678;52.052;4.242;2023-07-20T12:26:19;101596.31;;;28.19;35.71
36692;BME280;22678;52.052;4.242;2023-07-20T12:28:45;101611.69;;;28.19;36.26
36692;BME280;22678;52.052;4.242;2023-07-20T12:31:10;101602.81;;;28.17;36.45
36692;BME280;22678;52.052;4.242;2023-07-20T12:33:37;101607.78;;;28.23;35.40
36692;BME280;22678;52.052;4.242;2023-07-20T12:36:04;101607.97;;;28.32;35.70
36692;BME280;22678;52.052;4.242;2023-07-20T12:38:29;101608.19;;;28.42;36.15
36692;BME280;22678;52.052;4.242;2023-07-20T12:40:56;101605.16;;;28.60;36.38
36692;BME280;22678;52.052;4.242;2023-07-20T12:43:22;101609.88;;;28.82;36.09
36692;BME280;22678;52.052;4.242;2023-07-20T12:45:48;101601.66;;;28.83;35.78
36692;BME280;22678;52.052;4.242;2023-07-20T12:48:13;101599.38;;;28.90;35.33
36692;BME280;22678;52.052;4.242;2023-07-20T12:50:39;101604.81;;;29.01;35.06
36692;BME280;22678;52.052;4.242;2023-07-20T12:53:04;101603.28;;;29.10;35.42
36692;BME280;22678;52.052;4.242;2023-07-20T12:55:30;101598.09;;;29.07;35.25
36692;BME280;22678;52.052;4.242;2023-07-20T12:57:56;101589.47;;;29.02;34.91
36692;BME280;22678;52.052;4.242;2023-07-20T13:00:22;101599.28;;;29.03;34.45
36692;BME280;22678;52.052;4.242;2023-07-20T13:02:48;101591.50;;;28.98;35.13
36692;BME280;22678;52.052;4.242;2023-07-20T13:05:14;101589.16;;;28.94;35.28